Time;durP1;ratioP1;P1;durP2;ratioP2;P2;SDS_P1;SDS_P2;PMS_P1;PMS_P2;Temp;Humidity;BMP_temperature;BMP_pressure;BME280_temperature;BME280_humidity;BME280_pressure;Samples;Min_cycle;Max_cycle;Signal;HPM_P1;HPM_P2
2022/06/14 00:02:15;;;;;;;5.70;3.40;;;;;;;16.85;72.08;95516.02;1792597;80;21017;-66
2022/06/14 00:05:00;;;;;;;4.12;3.67;;;;;;;16.79;72.05;95521.63;1792122;80;21048;-66
2022/06/14 00:07:46;;;;;;;5.35;3.80;;;;;;;16.64;73.48;95522.28;1792668;80;21088;-65
2022/06/14 00:10:13;;;;;;;5.03;3.55;;;;;;;16.64;73.48;95522.28;1800934;80;20996;-66
2022/06/14 00:12:39;;;;;;;4.08;3.40;;;;;;;16.54;73.05;95523.14;1801128;80;20985;-66
2022/06/14 00:15:07;;;;;;;3.62;3.33;;;;;;;16.51;73.52;95517.95;1800882;80;20958;-66
2022/06/14 00:17:34;;;;;;;3.52;3.10;;;;;;;16.49;73.45;95514.95;1801092;80;20989;-66
2022/06/14 00:20:01;;;;;;;3.83;3.50;;;;;;;16.46;73.41;95521.28;1800873;80;21495;-66
2022/06/14 00:22:28;;;;;;;3.90;3.55;;;;;;;16.43;73.44;95522.27;1801176;80;21032;-66
2022/06/14 00:24:56;;;;;;;4.53;3.70;;;;;;;16.38;73.89;95528.73;1800521;80;21001;-66
2022/06/14 00:27:22;;;;;;;7.80;4.00;;;;;;;16.30;74.25;95530.83;1801192;80;20992;-65
2022/06/14 00:29:49;;;;;;;4.00;3.60;;;;;;;16.25;74.61;95533.68;1801278;80;21052;-65
2022/06/14 00:32:16;;;;;;;6.17;3.80;;;;;;;16.12;75.29;95526.67;1801005;80;21001;-66
2022/06/14 00:34:42;;;;;;;4.53;3.65;;;;;;;16.11;74.87;95532.08;1800941;80;21005;-65
2022/06/14 00:37:17;;;;;;;4.33;4.00;;;;;;;16.07;74.59;95534.45;1801055;80;21025;-66
2022/06/14 00:39:45;;;;;;;4.60;4.17;;;;;;;15.99;75.19;95540.09;1800592;80;21037;-66
2022/06/14 00:42:22;;;;;;;5.53;3.47;;;;;;;15.97;75.26;95549.45;1801305;80;21459;-66
2022/06/14 00:45:03;;;;;;;3.58;3.27;;;;;;;15.92;75.57;95546.11;1801263;80;21028;-65
2022/06/14 00:47:37;;;;;;;3.50;2.90;;;;;;;15.92;74.87;95557.23;1801143;80;21001;-66
2022/06/14 00:50:09;;;;;;;2.98;2.77;;;;;;;15.89;74.59;95558.69;1792284;80;20969;-66
2022/06/14 00:52:47;;;;;;;5.40;2.70;;;;;;;15.90;74.39;95560.41;1801070;80;20997;-65
2022/06/14 00:55:19;;;;;;;5.60;2.98;;;;;;;15.92;73.92;95554.56;1800972;80;21004;-66
2022/06/14 00:57:57;;;;;;;6.00;2.87;;;;;;;15.87;74.19;95561.87;1799083;80;20985;-65
2022/06/14 01:00:29;;;;;;;2.85;2.58;;;;;;;15.71;74.46;95561.14;1801085;80;21480;-66
2022/06/14 01:03:00;;;;;;;3.33;2.80;;;;;;;15.63;74.55;95571.66;1801548;80;20976;-65
2022/06/14 01:08:24;;;;;;;2.30;2.10;;;;;;;15.56;74.80;95581.66;1800885;80;21499;-65
2022/06/14 01:10:51;;;;;;;2.92;2.20;;;;;;;15.57;75.20;95582.94;1801063;80;21045;-65
2022/06/14 01:13:20;;;;;;;3.05;2.40;;;;;;;15.63;75.72;95587.15;1801459;80;20946;-66
2022/06/14 01:15:50;;;;;;;2.58;2.17;;;;;;;15.62;75.36;95589.86;1800899;80;21001;-65
2022/06/14 01:18:17;;;;;;;3.62;2.15;;;;;;;15.59;75.27;95596.16;1801217;80;21515;-65
2022/06/14 01:20:44;;;;;;;2.17;1.98;;;;;;;15.58;75.10;95593.97;1801090;80;21001;-65
2022/06/14 01:23:16;;;;;;;2.75;2.12;;;;;;;15.53;75.64;95599.93;1801067;80;20985;-66
2022/06/14 01:25:50;;;;;;;2.20;2.00;;;;;;;15.56;75.86;95603.80;1801106;80;21001;-65
2022/06/14 01:28:20;;;;;;;3.05;1.95;;;;;;;15.57;75.73;95609.54;1800994;80;21307;-65
2022/06/14 01:30:50;;;;;;;2.25;2.08;;;;;;;15.60;75.40;95605.89;1801105;80;21510;-65
2022/06/14 01:33:31;;;;;;;2.60;1.82;;;;;;;15.66;74.98;95614.09;1801211;80;20962;-66
2022/06/14 01:36:02;;;;;;;4.78;2.08;;;;;;;15.67;74.96;95615.81;1800890;80;21059;-65
2022/06/14 01:38:30;;;;;;;5.03;2.00;;;;;;;15.65;75.15;95620.31;1800766;80;21064;-66
2022/06/14 01:41:40;;;;;;;2.90;1.98;;;;;;;15.66;74.47;95612.77;1801241;80;20969;-66
2022/06/14 01:44:36;;;;;;;6.03;2.70;;;;;;;15.69;75.13;95616.20;1800828;80;21005;-65
2022/06/14 01:47:20;;;;;;;6.08;3.77;;;;;;;15.71;75.29;95611.69;1800916;80;21451;-66
2022/06/14 01:53:19;;;;;;;4.87;3.02;;;;;;;15.71;74.70;95614.34;1801198;80;21462;-66
2022/06/14 01:56:09;;;;;;;6.37;4.07;;;;;;;15.76;74.19;95616.37;1800955;80;21491;-66
2022/06/14 01:59:17;;;;;;;5.25;3.70;;;;;;;15.80;74.68;95617.13;1801128;80;21034;-66
2022/06/14 02:01:49;;;;;;;4.83;3.15;;;;;;;15.88;75.05;95620.83;1801247;80;21050;-66
2022/06/14 02:04:39;;;;;;;6.75;3.22;;;;;;;15.90;74.76;95626.49;1800940;80;20993;-66
2022/06/14 02:07:34;;;;;;;4.90;2.20;;;;;;;15.95;74.68;95620.97;1765971;81;21045;-66
2022/06/14 02:10:12;;;;;;;4.25;2.20;;;;;;;16.00;74.00;95621.65;1763397;81;21017;-65
2022/06/14 02:12:50;;;;;;;2.35;1.95;;;;;;;15.99;72.72;95642.08;1795579;80;21071;-66
2022/06/14 02:15:51;;;;;;;2.67;1.80;;;;;;;15.98;72.47;95631.05;1764608;81;20970;-66
2022/06/14 02:18:41;;;;;;;3.52;1.42;;;;;;;16.01;72.39;95638.90;1795570;80;21032;-65
2022/06/14 02:21:25;;;;;;;2.33;1.42;;;;;;;16.01;71.64;95640.70;1795815;80;21038;-65
2022/06/14 02:24:03;;;;;;;1.52;1.42;;;;;;;15.98;71.38;95648.81;1795547;80;21488;-65
2022/06/14 02:26:37;;;;;;;1.70;1.32;;;;;;;15.95;71.20;95661.77;1795272;80;21038;-66
2022/06/14 02:29:13;;;;;;;2.95;1.02;;;;;;;15.91;70.71;95660.61;1794705;80;21007;-66
2022/06/14 02:31:54;;;;;;;1.50;1.00;;;;;;;15.87;70.32;95661.64;1795313;80;21061;-65
2022/06/14 02:34:29;;;;;;;1.07;0.98;;;;;;;15.80;69.67;95661.03;1794233;80;20959;-65
2022/06/14 02:37:09;;;;;;;0.90;0.70;;;;;;;15.69;69.74;95665.41;1795550;80;21006;-65
2022/06/14 02:39:44;;;;;;;2.17;0.88;;;;;;;15.60;69.37;95668.39;1795342;80;21010;-65
2022/06/14 02:42:16;;;;;;;1.40;0.90;;;;;;;15.47;69.42;95664.43;1795150;80;21069;-66
2022/06/14 02:44:59;;;;;;;1.20;0.77;;;;;;;15.33;69.87;95676.91;1795558;80;21010;-66
2022/06/14 02:47:41;;;;;;;;;;;;;;;15.20;69.89;95677.81;1798097;80;21014;-66
2022/06/14 02:50:29;;;;;;;0.60;0.60;;;;;;;15.09;70.49;95679.95;1795682;80;20112;-65
2022/06/14 02:53:22;;;;;;;1.60;0.70;;;;;;;15.01;71.37;95684.21;1795440;80;21003;-66
2022/06/14 02:56:00;;;;;;;0.75;0.60;;;;;;;14.95;71.03;95684.91;1795343;80;21316;-65
2022/06/14 02:58:53;;;;;;;0.50;0.50;;;;;;;14.71;71.59;95691.43;1795720;80;21557;-65
2022/06/14 03:02:02;;;;;;;0.98;0.50;;;;;;;14.66;73.05;95702.20;1795501;80;21064;-65
2022/06/14 03:04:53;;;;;;;0.62;0.60;;;;;;;14.62;72.77;95701.05;1795432;80;21053;-65
2022/06/14 03:07:52;;;;;;;0.70;0.70;;;;;;;14.63;72.77;95697.46;1795189;80;21516;-65
2022/06/14 03:11:12;;;;;;;1.45;0.72;;;;;;;14.62;72.35;95705.89;1795115;80;21034;-65
2022/06/14 03:14:25;;;;;;;1.65;0.75;;;;;;;14.56;72.52;95707.41;1795049;80;21018;-65
2022/06/14 03:17:34;;;;;;;1.10;0.72;;;;;;;14.41;73.24;95711.41;1795509;80;21006;-65
2022/06/14 03:20:49;;;;;;;4.35;0.70;;;;;;;14.37;73.82;95720.84;1782466;80;21042;-65
2022/06/14 03:23:39;;;;;;;4.15;0.90;;;;;;;14.35;73.88;95727.98;1795667;80;20967;-65
2022/06/14 03:26:26;;;;;;;1.75;0.68;;;;;;;14.35;74.20;95726.19;1794340;80;21026;-65
2022/06/14 03:29:01;;;;;;;1.07;0.90;;;;;;;14.34;73.98;95732.86;1795571;80;20995;-65
2022/06/14 03:31:54;;;;;;;2.50;0.78;;;;;;;14.28;74.62;95737.91;1795449;80;21464;-65
2022/06/14 03:34:40;;;;;;;1.52;0.88;;;;;;;14.33;74.38;95737.30;1697613;84;21019;-66
2022/06/14 03:37:08;;;;;;;1.98;1.00;;;;;;;14.36;74.84;95738.53;1697441;84;21054;-66
2022/06/14 03:39:39;;;;;;;2.27;0.85;;;;;;;14.34;74.69;95744.80;1745652;80;21021;-65
2022/06/14 03:42:10;;;;;;;4.78;0.80;;;;;;;14.34;75.42;95744.38;1795243;80;21448;-66
2022/06/14 03:44:38;;;;;;;1.10;1.00;;;;;;;14.36;74.79;95745.63;1795401;80;21014;-65
2022/06/14 03:47:19;;;;;;;1.07;0.90;;;;;;;14.41;74.61;95745.03;1795502;80;20967;-66
2022/06/14 03:50:03;;;;;;;1.00;0.90;;;;;;;14.48;74.10;95751.42;1795279;80;21023;-65
2022/06/14 03:53:09;;;;;;;1.52;0.90;;;;;;;14.53;73.27;95754.41;1794595;80;20995;-65
2022/06/14 03:56:06;;;;;;;1.65;0.88;;;;;;;14.56;73.24;95760.51;1773107;80;21050;-65
2022/06/14 03:59:00;;;;;;;1.00;0.90;;;;;;;14.66;72.89;95763.75;1795358;80;21018;-65
2022/06/14 04:01:54;;;;;;;2.37;1.00;;;;;;;14.74;72.57;95768.38;1795841;80;20951;-66
2022/06/14 04:04:35;;;;;;;1.75;1.45;;;;;;;14.79;72.03;95768.20;1782697;80;21011;-66
2022/06/14 04:07:10;;;;;;;12.60;5.97;;;;;;;14.85;71.67;95771.55;1795320;80;21117;-66
2022/06/14 04:10:01;;;;;;;5.65;3.58;;;;;;;14.93;71.36;95772.63;1794095;80;21010;-66
2022/06/14 04:12:52;;;;;;;3.15;2.30;;;;;;;15.07;71.08;95767.73;1795442;80;21003;-65
2022/06/14 04:15:54;;;;;;;4.40;2.10;;;;;;;15.19;70.83;95769.55;1734918;80;21011;-65
2022/06/14 04:19:04;;;;;;;4.60;2.77;;;;;;;15.27;69.68;95774.14;1793359;80;21007;-65
2022/06/14 04:22:04;;;;;;;5.00;2.90;;;;;;;15.36;69.04;95786.66;1794757;80;21054;-66
2022/06/14 04:24:54;;;;;;;3.95;2.50;;;;;;;15.51;68.39;95776.42;1795417;80;21473;-65
2022/06/14 04:27:26;;;;;;;1.72;1.42;;;;;;;15.66;68.22;95783.86;1795664;80;21050;-65
2022/06/14 04:30:13;;;;;;;1.82;1.70;;;;;;;15.76;66.72;95781.77;1795755;80;21469;-65
2022/06/14 04:33:00;;;;;;;1.55;1.15;;;;;;;15.86;66.50;95785.84;1795608;80;20978;-66
2022/06/14 04:35:44;;;;;;;5.47;2.00;;;;;;;15.83;66.18;95781.97;1795411;80;21003;-65
2022/06/14 04:38:33;;;;;;;4.75;1.40;;;;;;;15.86;66.85;95775.66;1795076;80;21058;-65
2022/06/14 04:41:22;;;;;;;4.67;1.42;;;;;;;15.87;66.97;95782.23;1795366;80;21026;-65
2022/06/14 04:44:03;;;;;;;2.00;0.95;;;;;;;15.90;66.62;95787.48;1795635;80;21022;-66
2022/06/14 04:46:38;;;;;;;3.72;1.50;;;;;;;15.91;66.01;95785.21;1795497;80;21056;-65
2022/06/14 04:49:26;;;;;;;1.55;1.22;;;;;;;15.92;65.70;95780.75;1795873;80;21485;-66
2022/06/14 04:52:13;;;;;;;3.75;2.08;;;;;;;15.94;66.01;95791.74;1795468;80;21082;-66
2022/06/14 04:54:55;;;;;;;2.50;1.45;;;;;;;15.94;64.96;95791.74;1795550;80;21022;-65
2022/06/14 04:57:31;;;;;;;1.60;1.50;;;;;;;15.90;64.82;95787.91;1795250;80;21111;-65
2022/06/14 05:00:15;;;;;;;1.40;1.30;;;;;;;15.84;65.40;95794.80;1795493;80;21011;-65
2022/06/14 05:03:27;;;;;;;2.35;1.10;;;;;;;15.88;65.41;95791.98;1795560;80;20987;-66
2022/06/14 05:06:14;;;;;;;3.90;1.17;;;;;;;15.86;64.17;95788.50;1795486;80;21022;-66
2022/06/14 05:09:00;;;;;;;1.40;0.90;;;;;;;15.85;64.70;95784.11;1795639;80;21051;-65
2022/06/14 05:12:06;;;;;;;1.50;0.90;;;;;;;15.90;64.36;95785.25;1787542;80;21066;-65
2022/06/14 05:14:41;;;;;;;1.95;1.60;;;;;;;15.86;64.06;95789.83;1787260;80;20988;-66
2022/06/14 05:17:16;;;;;;;1.77;1.20;;;;;;;15.87;63.59;95794.22;1787079;80;21000;-66
2022/06/14 05:20:15;;;;;;;3.42;1.35;;;;;;;15.82;63.59;95796.17;1787101;80;21026;-65
2022/06/14 05:23:01;;;;;;;2.20;2.00;;;;;;;15.87;64.18;95801.34;1786981;80;21062;-66
2022/06/14 05:25:33;;;;;;;4.08;1.47;;;;;;;15.91;63.66;95796.32;1787284;80;21014;-65
2022/06/14 05:28:05;;;;;;;1.70;1.50;;;;;;;15.97;64.20;95801.41;1782519;80;21532;-65
2022/06/14 05:30:58;;;;;;;3.22;1.30;;;;;;;16.04;64.30;95804.72;1787348;80;21463;-65
2022/06/14 05:33:48;;;;;;;1.95;1.10;;;;;;;16.06;64.07;95793.56;1787655;80;21036;-65
2022/06/14 05:36:26;;;;;;;2.37;1.40;;;;;;;16.11;63.94;95797.78;1787026;80;21018;-65
2022/06/14 05:38:58;;;;;;;2.02;1.32;;;;;;;16.23;63.45;95800.00;1787236;80;21508;-66
2022/06/14 05:41:39;;;;;;;1.27;1.17;;;;;;;16.28;62.22;95801.59;1774760;80;20959;-65
2022/06/14 05:44:17;;;;;;;1.32;1.10;;;;;;;16.32;61.55;95797.44;1787132;80;21003;-66
2022/06/14 05:46:53;;;;;;;1.30;1.20;;;;;;;16.34;61.30;95795.59;1786863;80;20971;-65
2022/06/14 05:49:32;;;;;;;2.22;1.20;;;;;;;16.43;61.23;95793.91;1787172;80;21386;-66
2022/06/14 05:52:10;;;;;;;2.47;1.22;;;;;;;16.45;59.88;95789.84;1787400;80;21525;-66
2022/06/14 05:54:45;;;;;;;3.60;1.20;;;;;;;16.43;59.54;95796.58;1787062;80;21003;-66
2022/06/14 05:57:49;;;;;;;1.98;1.05;;;;;;;16.49;59.93;95789.28;1786069;80;21034;-66
2022/06/14 06:00:33;;;;;;;2.50;1.42;;;;;;;16.57;60.11;95793.37;1787155;80;20999;-65
2022/06/14 06:03:17;;;;;;;1.75;1.22;;;;;;;16.61;59.14;95790.14;1754286;80;21043;-65
2022/06/14 06:05:49;;;;;;;1.92;1.40;;;;;;;16.69;59.02;95791.17;1786095;80;21050;-66
2022/06/14 06:08:39;;;;;;;1.55;1.30;;;;;;;16.69;59.02;95791.17;1787354;80;21453;-66
2022/06/14 06:11:32;;;;;;;4.17;1.50;;;;;;;16.77;58.37;95801.05;1792362;80;21555;-65
2022/06/14 06:14:40;;;;;;;2.15;1.50;;;;;;;16.79;57.83;95803.23;1795552;80;21448;-66
2022/06/14 06:17:21;;;;;;;1.37;1.05;;;;;;;16.80;57.75;95808.95;1795273;80;21053;-65
2022/06/14 06:20:13;;;;;;;1.95;1.60;;;;;;;16.79;57.16;95811.22;1795583;80;21002;-66
2022/06/14 06:22:54;;;;;;;2.00;1.50;;;;;;;16.85;58.28;95820.30;1795176;80;21026;-66
2022/06/14 06:25:28;;;;;;;2.80;1.30;;;;;;;16.92;58.16;95816.46;1795489;80;21448;-66
2022/06/14 06:28:14;;;;;;;2.37;1.30;;;;;;;16.98;57.78;95813.53;1794500;80;21042;-65
2022/06/14 06:30:49;;;;;;;1.77;1.30;;;;;;;17.03;57.80;95819.58;1795465;80;21480;-65
2022/06/14 06:33:19;;;;;;;3.00;1.52;;;;;;;16.97;57.84;95818.48;1795550;80;21528;-65
2022/06/14 06:36:17;;;;;;;1.65;1.42;;;;;;;16.97;57.84;95818.48;1795517;80;21446;-65
2022/06/14 06:39:27;;;;;;;4.47;1.45;;;;;;;17.12;58.00;95821.47;1795349;80;21014;-65
2022/06/14 06:41:59;;;;;;;3.40;1.22;;;;;;;17.17;57.28;95830.14;1698925;84;21078;-66
2022/06/14 06:44:53;;;;;;;;;;;;;;;17.22;57.40;95830.34;1787819;80;21054;-65
2022/06/14 06:47:40;;;;;;;3.20;1.55;;;;;;;17.32;58.05;95840.18;1795853;80;20123;-66
2022/06/14 06:50:43;;;;;;;2.20;1.75;;;;;;;17.36;56.94;95847.58;1795277;80;21006;-66
2022/06/14 06:53:17;;;;;;;3.58;1.67;;;;;;;17.35;57.53;95857.85;1795295;80;21512;-66
2022/06/14 06:56:16;;;;;;;2.05;1.85;;;;;;;17.35;57.53;95857.85;1795464;80;20983;-66
2022/06/14 06:58:56;;;;;;;4.22;1.70;;;;;;;17.46;56.63;95853.82;1795546;80;21018;-65
2022/06/14 07:01:41;;;;;;;2.55;1.77;;;;;;;17.56;56.73;95861.42;1795533;80;21057;-65
2022/06/14 07:07:18;;;;;;;3.52;1.30;;;;;;;17.63;54.95;95861.57;1795589;80;21480;-65
2022/06/14 07:09:53;;;;;;;2.52;1.42;;;;;;;17.71;56.42;95864.78;1795412;80;21002;-65
2022/06/14 07:12:43;;;;;;;4.58;1.37;;;;;;;17.87;56.74;95865.91;1763962;81;21532;-65
2022/06/14 07:15:27;;;;;;;3.77;1.35;;;;;;;18.01;56.24;95863.09;1724839;81;21001;-66
2022/06/14 07:18:08;;;;;;;2.80;1.40;;;;;;;18.13;56.18;95863.42;1763963;81;21019;-65
2022/06/14 07:21:16;;;;;;;3.00;1.50;;;;;;;18.24;55.96;95870.95;1764150;81;21043;-65
2022/06/14 07:23:49;;;;;;;2.15;1.37;;;;;;;18.34;55.55;95874.09;1764214;81;21468;-65
2022/06/14 07:26:38;;;;;;;2.47;1.52;;;;;;;18.37;54.82;95881.52;1764193;81;21007;-65
2022/06/14 07:29:31;;;;;;;3.70;1.60;;;;;;;18.35;54.57;95877.18;1764360;81;20992;-65
2022/06/14 07:32:06;;;;;;;6.85;1.45;;;;;;;18.34;52.33;95879.43;1764396;81;20999;-65
2022/06/14 07:34:35;;;;;;;3.35;1.82;;;;;;;18.37;52.98;95877.98;1764260;81;20980;-65
2022/06/14 07:37:23;;;;;;;2.10;1.50;;;;;;;18.45;52.54;95887.85;1763934;81;21019;-65
2022/06/14 07:40:07;;;;;;;1.40;1.30;;;;;;;18.52;52.40;95883.08;1764282;81;21018;-65
2022/06/14 07:42:48;;;;;;;4.03;1.70;;;;;;;18.60;52.47;95892.50;1763521;81;21500;-66
2022/06/14 07:45:31;;;;;;;3.52;1.77;;;;;;;18.70;52.57;95897.44;1760578;81;21050;-65
2022/06/14 07:48:09;;;;;;;2.27;1.67;;;;;;;18.73;52.66;95898.15;1756327;81;21023;-66
2022/06/14 07:50:52;;;;;;;4.22;1.62;;;;;;;18.83;52.47;95905.31;1764265;81;21454;-66
2022/06/14 07:53:30;;;;;;;3.33;1.42;;;;;;;18.89;52.53;95905.02;1764161;81;20968;-65
2022/06/14 07:56:12;;;;;;;2.90;1.70;;;;;;;18.98;51.45;95910.42;1763831;81;21011;-66
2022/06/14 07:58:50;;;;;;;2.52;1.62;;;;;;;19.04;50.93;95915.47;1764255;81;21046;-66
2022/06/14 08:01:24;;;;;;;3.27;1.50;;;;;;;19.05;51.00;95910.98;1763528;81;20999;-66
2022/06/14 08:04:23;;;;;;;5.28;2.05;;;;;;;19.25;51.65;95914.92;1764043;81;21007;-66
2022/06/14 08:07:00;;;;;;;2.37;1.40;;;;;;;19.45;51.42;95916.64;1764353;81;21449;-66
2022/06/14 08:09:54;;;;;;;2.72;1.40;;;;;;;19.59;49.47;95911.97;1763973;81;20959;-65
2022/06/14 08:12:35;;;;;;;1.75;1.60;;;;;;;19.66;51.81;95908.05;1792664;80;21004;-66
2022/06/14 08:15:22;;;;;;;3.25;1.60;;;;;;;19.81;47.64;95915.34;1795200;80;21480;-65
2022/06/14 08:18:03;;;;;;;2.37;1.62;;;;;;;19.84;48.38;95916.53;1779574;80;21013;-65
2022/06/14 08:20:44;;;;;;;4.53;1.65;;;;;;;20.02;48.23;95916.55;1795654;80;21031;-66
2022/06/14 08:23:34;;;;;;;1.92;1.40;;;;;;;20.16;46.72;95915.38;1795398;80;21473;-66
2022/06/14 08:26:21;;;;;;;3.33;1.57;;;;;;;20.26;46.64;95909.94;1789837;80;20962;-66
2022/06/14 08:28:59;;;;;;;2.12;1.45;;;;;;;20.35;45.90;95913.94;1795125;80;21492;-65
2022/06/14 08:31:44;;;;;;;4.22;1.70;;;;;;;20.68;47.86;95909.13;1764329;80;21464;-66
2022/06/14 08:34:15;;;;;;;3.52;1.65;;;;;;;20.96;46.21;95909.83;1795399;80;21002;-66
2022/06/14 08:36:51;;;;;;;2.47;1.70;;;;;;;21.16;45.11;95908.25;1795629;80;21025;-66
2022/06/14 08:39:23;;;;;;;3.85;1.60;;;;;;;21.30;45.83;95911.53;1795511;80;21497;-66
2022/06/14 08:42:07;;;;;;;3.22;1.42;;;;;;;21.57;45.19;95913.17;1795263;80;21006;-66
2022/06/14 08:44:57;;;;;;;3.58;1.52;;;;;;;21.59;43.47;95913.92;1792695;80;20987;-66
2022/06/14 08:47:57;;;;;;;4.03;1.60;;;;;;;21.57;43.56;95918.54;1793793;80;21022;-66
2022/06/14 08:50:37;;;;;;;12.80;1.80;;;;;;;21.50;41.70;95920.32;1794913;80;20980;-66
2022/06/14 08:53:43;;;;;;;5.45;1.57;;;;;;;21.55;43.06;95922.27;1795615;80;21460;-66
2022/06/14 08:56:47;;;;;;;4.10;1.50;;;;;;;21.74;42.93;95909.49;1795547;80;21074;-66
2022/06/14 08:59:48;;;;;;;4.40;2.00;;;;;;;21.72;41.13;95922.63;1794981;80;21010;-66
2022/06/14 09:02:56;;;;;;;1.95;1.55;;;;;;;21.84;41.26;95912.52;1795552;80;21472;-66
2022/06/14 09:05:57;;;;;;;2.40;1.57;;;;;;;22.12;42.86;95916.27;1795642;80;21050;-66
2022/06/14 09:08:51;;;;;;;2.77;1.87;;;;;;;22.43;42.61;95906.80;1795557;80;20975;-66
2022/06/14 09:11:42;;;;;;;5.22;1.90;;;;;;;22.46;39.59;95915.16;1794627;80;21575;-66
2022/06/14 09:14:16;;;;;;;4.85;1.90;;;;;;;22.36;39.78;95907.27;1795593;80;21045;-66
2022/06/14 09:17:27;;;;;;;5.17;1.90;;;;;;;22.50;39.89;95907.77;1738113;80;21026;-66
2022/06/14 09:20:17;;;;;;;4.20;1.57;;;;;;;22.68;39.50;95912.90;1795387;80;21018;-66
2022/06/14 09:23:11;;;;;;;2.65;1.60;;;;;;;22.47;36.46;95911.02;1796130;80;21018;-66
2022/06/14 09:26:09;;;;;;;5.72;1.47;;;;;;;22.50;38.71;95915.83;1795571;80;21521;-66
2022/06/14 09:28:59;;;;;;;2.85;1.80;;;;;;;22.46;38.12;95920.05;1795429;80;21528;-66
2022/06/14 09:32:20;;;;;;;3.15;2.00;;;;;;;22.58;37.60;95916.22;1795747;80;21039;-66
2022/06/14 09:35:24;;;;;;;2.95;1.70;;;;;;;22.86;38.17;95915.41;1795699;80;21026;-66
2022/06/14 09:38:11;;;;;;;4.75;1.52;;;;;;;23.01;38.57;95913.63;1795340;80;21061;-66
2022/06/14 09:40:48;;;;;;;7.40;1.72;;;;;;;22.66;37.16;95917.50;1793964;80;21007;-66
2022/06/14 09:43:42;;;;;;;7.83;2.12;;;;;;;22.49;38.06;95920.84;1795444;80;20998;-66
2022/06/14 09:46:17;;;;;;;2.20;1.40;;;;;;;22.59;38.02;95920.17;1795384;80;21014;-65
2022/06/14 09:49:10;;;;;;;5.20;1.67;;;;;;;22.92;37.58;95923.09;1782635;80;21014;-66
2022/06/14 09:51:57;;;;;;;3.52;1.70;;;;;;;23.10;34.63;95920.61;1795480;80;20995;-66
2022/06/14 09:55:07;;;;;;;4.00;1.50;;;;;;;23.39;36.90;95919.75;1795429;80;21054;-66
2022/06/14 09:57:59;;;;;;;3.77;1.52;;;;;;;23.82;36.06;95923.72;1795094;80;21026;-66
2022/06/14 10:00:46;;;;;;;4.08;1.55;;;;;;;24.12;33.18;95919.46;1785605;80;21027;-66
2022/06/14 10:04:01;;;;;;;4.00;1.52;;;;;;;24.03;32.60;95916.03;1795414;80;21453;-66
2022/06/14 10:06:52;;;;;;;3.25;2.42;;;;;;;23.71;32.87;95923.02;1795517;80;21002;-66
2022/06/14 10:09:39;;;;;;;15.75;2.77;;;;;;;23.82;32.51;95922.37;1782996;80;21090;-66
2022/06/14 10:12:53;;;;;;;2.92;2.00;;;;;;;23.67;33.67;95920.16;1790781;80;21074;-66
2022/06/14 10:15:47;;;;;;;5.72;2.12;;;;;;;23.28;32.08;95925.34;1786411;80;21524;-66
2022/06/14 10:18:41;;;;;;;5.37;1.92;;;;;;;22.96;33.22;95931.37;1787181;80;21026;-66
2022/06/14 10:21:19;;;;;;;3.37;1.62;;;;;;;22.44;33.47;95934.06;1787241;80;20995;-66
2022/06/14 10:24:09;;;;;;;4.62;1.60;;;;;;;22.25;34.22;95934.77;1787116;80;21470;-66
2022/06/14 10:30:04;;;;;;;4.95;1.52;;;;;;;23.03;34.85;95931.41;1783048;80;21035;-66
2022/06/14 10:32:52;;;;;;;3.30;1.80;;;;;;;23.41;35.73;95919.14;1787324;80;21043;-66
2022/06/14 10:35:24;;;;;;;4.50;1.52;;;;;;;23.71;32.62;95923.91;1786507;80;20975;-66
2022/06/14 10:38:05;;;;;;;6.95;1.85;;;;;;;24.00;32.14;95916.23;1785874;80;21030;-66
2022/06/14 10:40:48;;;;;;;3.60;1.90;;;;;;;24.27;32.19;95915.73;1787216;80;20980;-66
2022/06/14 10:43:44;;;;;;;1.92;1.30;;;;;;;24.35;32.74;95910.67;1722803;80;21027;-66
2022/06/14 10:46:26;;;;;;;3.05;1.50;;;;;;;24.45;30.46;95910.94;1787394;80;21034;-65
2022/06/14 10:49:38;;;;;;;2.90;1.50;;;;;;;23.91;30.57;95901.53;1787537;80;21464;-66
2022/06/14 10:52:48;;;;;;;1.77;1.57;;;;;;;23.97;32.34;95906.53;1787418;80;21015;-66
2022/06/14 10:55:57;;;;;;;3.65;1.47;;;;;;;24.29;31.05;95900.31;1787191;80;21452;-66
2022/06/14 10:58:49;;;;;;;5.28;1.30;;;;;;;24.57;30.73;95906.05;1786810;80;21002;-66
2022/06/14 11:01:52;;;;;;;3.42;1.22;;;;;;;24.79;31.32;95897.30;1786623;80;21042;-66
2022/06/14 11:04:39;;;;;;;1.67;1.22;;;;;;;24.82;28.88;95897.56;1787505;80;21031;-66
2022/06/14 11:07:47;;;;;;;3.02;1.30;;;;;;;24.76;28.08;95899.36;1787109;80;21042;-66
2022/06/14 11:10:37;;;;;;;1.95;1.40;;;;;;;24.89;28.85;95902.05;1706060;83;21031;-66
2022/06/14 11:13:43;;;;;;;2.12;1.20;;;;;;;25.12;29.05;95893.67;1712312;83;21015;-65
2022/06/14 11:16:36;;;;;;;2.60;1.30;;;;;;;25.27;29.87;95887.19;1777540;80;21625;-66
2022/06/14 11:22:17;;;;;;;1.22;1.02;;;;;;;25.43;27.56;95892.36;1795561;80;20998;-66
2022/06/14 11:25:17;;;;;;;2.83;1.25;;;;;;;25.36;28.13;95897.34;1795218;80;21355;-66
2022/06/14 11:28:15;;;;;;;3.60;1.20;;;;;;;24.88;27.35;95893.10;1795021;80;20998;-66
2022/06/14 11:31:25;;;;;;;4.47;1.40;;;;;;;24.82;28.61;95884.96;1795408;80;21027;-66
2022/06/14 11:34:22;;;;;;;2.40;1.10;;;;;;;24.80;26.88;95891.44;1795704;80;20987;-66
2022/06/14 11:37:27;;;;;;;3.60;2.50;;;;;;;24.77;28.33;95883.08;1795257;80;21508;-66
2022/06/14 11:40:31;;;;;;;2.83;1.87;;;;;;;24.90;27.54;95887.12;1795304;80;21441;-66
2022/06/14 11:43:32;;;;;;;8.60;1.70;;;;;;;25.08;28.13;95892.18;1795061;80;21061;-66
2022/06/14 11:46:23;;;;;;;13.85;1.50;;;;;;;25.12;28.10;95890.47;1795357;80;20999;-66
2022/06/14 11:49:03;;;;;;;2.45;1.17;;;;;;;25.41;28.09;95892.47;1795544;80;20991;-66
2022/06/14 11:51:53;;;;;;;1.72;1.22;;;;;;;25.28;25.87;95887.59;1795384;80;21006;-66
2022/06/14 11:54:26;;;;;;;3.83;1.30;;;;;;;25.30;26.99;95884.30;1795458;80;20991;-66
2022/06/14 11:56:58;;;;;;;1.65;1.30;;;;;;;25.14;26.51;95890.38;1795208;80;21226;-66
2022/06/14 11:59:50;;;;;;;1.52;1.10;;;;;;;25.20;27.72;95889.95;1794965;80;21066;-66
2022/06/14 12:02:42;;;;;;;2.60;1.30;;;;;;;25.48;26.16;95886.14;1795287;80;21014;-66
2022/06/14 12:05:41;;;;;;;4.55;1.50;;;;;;;25.70;26.71;95873.23;1795618;80;20982;-66
2022/06/14 12:08:59;;;;;;;4.92;2.40;;;;;;;25.81;26.97;95885.47;1795255;80;21026;-66
2022/06/14 12:11:47;;;;;;;4.47;1.57;;;;;;;26.09;26.34;95874.83;1794998;80;21469;-65
2022/06/14 12:14:57;;;;;;;4.55;1.70;;;;;;;26.59;25.89;95873.80;1786527;80;21022;-66
2022/06/14 12:17:52;;;;;;;2.45;1.62;;;;;;;27.07;25.95;95870.91;1787129;80;20999;-66
2022/06/14 12:20:23;;;;;;;2.98;1.50;;;;;;;27.30;24.21;95868.58;1679204;85;21015;-66
2022/06/14 12:23:16;;;;;;;4.70;1.02;;;;;;;27.48;24.27;95873.49;1763881;80;21525;-66
2022/06/14 12:29:23;;;;;;;6.78;1.37;;;;;;;27.61;23.30;95868.28;1786302;80;21929;-66
2022/06/14 12:32:20;;;;;;;4.42;1.47;;;;;;;27.72;23.93;95867.42;1787279;80;21297;-66
2022/06/14 12:34:51;;;;;;;4.45;1.17;;;;;;;28.05;24.19;95872.41;1787144;80;21047;-66
2022/06/14 12:37:43;;;;;;;2.40;1.20;;;;;;;28.67;24.75;95868.05;1754525;80;21078;-66
2022/06/14 12:40:18;;;;;;;4.67;1.37;;;;;;;28.90;22.38;95869.64;1787404;80;21059;-66
2022/06/14 12:42:59;;;;;;;3.62;1.10;;;;;;;28.98;23.73;95858.58;1786567;80;21058;-66
2022/06/14 12:46:05;;;;;;;3.22;1.20;;;;;;;28.83;23.09;95870.31;1787198;80;20987;-66
2022/06/14 12:49:06;;;;;;;3.42;1.20;;;;;;;29.23;22.42;95864.09;1787626;80;21018;-66
2022/06/14 12:51:41;;;;;;;6.47;1.40;;;;;;;29.49;22.49;95867.22;1787007;80;21015;-66
2022/06/14 12:54:35;;;;;;;5.15;1.30;;;;;;;29.18;22.69;95866.36;1787073;80;20975;-66
2022/06/14 12:57:33;;;;;;;4.40;1.20;;;;;;;29.52;23.58;95855.55;1786864;80;21537;-66
2022/06/14 13:00:49;;;;;;;4.83;1.20;;;;;;;30.06;22.46;95858.83;1786982;80;21001;-66
2022/06/14 13:03:37;;;;;;;1.90;1.22;;;;;;;30.49;21.60;95858.95;1741526;80;21026;-66
2022/06/14 13:06:58;;;;;;;3.00;1.55;;;;;;;30.70;20.73;95857.92;1787491;80;20975;-66
2022/06/14 13:09:50;;;;;;;2.55;1.17;;;;;;;30.76;21.25;95860.05;1787281;80;20960;-66
2022/06/14 13:12:33;;;;;;;4.97;1.00;;;;;;;30.62;21.73;95847.25;1787527;80;20992;-66
2022/06/14 13:15:34;;;;;;;3.65;1.22;;;;;;;30.66;19.96;95850.53;1787117;80;21751;-66
2022/06/14 13:18:49;;;;;;;6.80;1.35;;;;;;;30.65;21.14;95851.55;1787162;80;21542;-66
2022/06/14 13:21:39;;;;;;;3.40;1.07;;;;;;;30.82;21.03;95845.89;1787244;80;20987;-66
2022/06/14 13:24:26;;;;;;;1.70;1.00;;;;;;;30.46;20.96;95846.97;1753446;80;21114;-66